Time;durP1;ratioP1;P1;durP2;ratioP2;P2;SDS_P1;SDS_P2;PMS_P1;PMS_P2;Temp;Humidity;BMP_temperature;BMP_pressure;BME280_temperature;BME280_humidity;BME280_pressure;Samples;Min_cycle;Max_cycle;Signal;HPM_P1;HPM_P2
2022/11/01 00:02:43;;;;;;;33.78;17.65;;;;;;;;;;10400737;28;20303;-74
2022/11/01 00:07:44;;;;;;;32.88;17.13;;;;;;;;;;10403388;28;20218;-73
2022/11/01 00:12:47;;;;;;;30.45;16.17;;;;;;;;;;10398901;28;20239;-74
2022/11/01 00:17:48;;;;;;;38.78;17.75;;;;;;;;;;10397678;28;20297;-74
2022/11/01 00:22:49;;;;;;;35.53;18.63;;;;;;;;;;10391167;28;20203;-73
2022/11/01 00:27:50;;;;;;;31.67;17.73;;;;;;;;;;10379382;28;20203;-74
2022/11/01 00:32:52;;;;;;;34.17;17.38;;;;;;;;;;10380427;28;20215;-74
2022/11/01 00:37:53;;;;;;;28.25;15.30;;;;;;;;;;10398283;28;20215;-74
2022/11/01 00:42:54;;;;;;;32.00;17.33;;;;;;;;;;10400307;28;20695;-74
2022/11/01 00:47:55;;;;;;;32.20;14.77;;;;;;;;;;10384394;28;20761;-73
2022/11/01 00:52:56;;;;;;;29.13;16.58;;;;;;;;;;10377938;28;20370;-74
2022/11/01 00:57:57;;;;;;;23.17;14.82;;;;;;;;;;10339666;28;20224;-73
2022/11/01 01:02:58;;;;;;;25.08;14.23;;;;;;;;;;10359803;28;20270;-74
2022/11/01 01:08:00;;;;;;;30.67;15.13;;;;;;;;;;10360596;28;20219;-74
2022/11/01 01:13:02;;;;;;;31.48;15.88;;;;;;;;;;10358526;28;20235;-74
2022/11/01 01:18:03;;;;;;;36.88;15.32;;;;;;;;;;10422034;28;20230;-74
2022/11/01 01:23:04;;;;;;;30.83;15.60;;;;;;;;;;10439114;28;20210;-73
2022/11/01 01:28:06;;;;;;;36.50;16.48;;;;;;;;;;10455216;28;20217;-74
2022/11/01 01:33:07;;;;;;;37.53;16.77;;;;;;;;;;10389676;28;20217;-73
2022/11/01 01:38:08;;;;;;;81.47;15.32;;;;;;;;;;10391841;28;20226;-73
2022/11/01 01:43:12;;;;;;;69.00;15.82;;;;;;;;;;10437525;28;20215;-73
2022/11/01 01:48:19;;;;;;;23.45;15.07;;;;;;;;;;10419362;28;20226;-74
2022/11/01 01:53:22;;;;;;;26.50;14.73;;;;;;;;;;10418512;28;20225;-74
2022/11/01 01:58:25;;;;;;;26.88;15.82;;;;;;;;;;10420018;28;20218;-74
2022/11/01 02:03:28;;;;;;;30.38;16.30;;;;;;;;;;10437490;28;20733;-74
2022/11/01 02:08:29;;;;;;;29.23;16.17;;;;;;;;;;10408937;28;20788;-74
2022/11/01 02:13:30;;;;;;;26.95;16.00;;;;;;;;;;10407822;28;20221;-74
2022/11/01 02:18:39;;;;;;;26.20;16.02;;;;;;;;;;10385115;28;20215;-74
2022/11/01 02:23:59;;;;;;;47.53;16.45;;;;;;;;;;10393431;28;20200;-74
2022/11/01 02:29:00;;;;;;;25.42;16.13;;;;;;;;;;10393596;28;20764;-74
2022/11/01 02:34:17;;;;;;;36.05;17.20;;;;;;;;;;10393645;28;20207;-73
2022/11/01 02:39:20;;;;;;;29.02;17.00;;;;;;;;;;10400902;28;20218;-74
2022/11/01 02:44:26;;;;;;;51.60;17.83;;;;;;;;;;10400418;28;20215;-73
2022/11/01 02:49:36;;;;;;;35.67;17.95;;;;;;;;;;10398659;28;20215;-74
2022/11/01 02:54:37;;;;;;;35.72;16.13;;;;;;;;;;10396321;28;20714;-74
2022/11/01 02:59:45;;;;;;;40.95;17.23;;;;;;;;;;10381011;28;20400;-74
2022/11/01 03:04:47;;;;;;;22.50;15.02;;;;;;;;;;10377010;28;20242;-74
2022/11/01 03:09:48;;;;;;;29.33;16.15;;;;;;;;;;10379156;28;20274;-74
2022/11/01 03:14:49;;;;;;;24.80;16.05;;;;;;;;;;10401664;28;20226;-74
2022/11/01 03:19:52;;;;;;;28.48;16.25;;;;;;;;;;10380613;28;20219;-75
2022/11/01 03:25:02;;;;;;;30.10;16.00;;;;;;;;;;10398303;28;20755;-74
2022/11/01 03:30:09;;;;;;;39.47;16.80;;;;;;;;;;10400938;28;20305;-74
2022/11/01 03:35:13;;;;;;;25.67;15.27;;;;;;;;;;10377800;28;20176;-74
2022/11/01 03:40:16;;;;;;;34.30;16.08;;;;;;;;;;10385426;28;20859;-74
2022/11/01 03:45:22;;;;;;;26.35;16.50;;;;;;;;;;10400241;28;20286;-74
2022/11/01 03:50:24;;;;;;;25.67;15.52;;;;;;;;;;10365330;28;20220;-73
2022/11/01 03:55:25;;;;;;;26.20;15.60;;;;;;;;;;10399619;28;20207;-74
2022/11/01 04:00:30;;;;;;;21.95;14.38;;;;;;;;;;10373495;28;20651;-74
2022/11/01 04:05:32;;;;;;;35.60;15.27;;;;;;;;;;10399182;28;20215;-74
2022/11/01 04:10:34;;;;;;;32.00;15.82;;;;;;;;;;10411205;28;20222;-73
2022/11/01 04:20:55;;;;;;;29.15;15.38;;;;;;;;;;10410064;28;20213;-74
2022/11/01 04:25:57;;;;;;;22.50;14.00;;;;;;;;;;10398576;28;20276;-74
2022/11/01 04:30:58;;;;;;;30.13;15.30;;;;;;;;;;10362552;28;20219;-74
2022/11/01 04:36:04;;;;;;;27.70;15.88;;;;;;;;;;10410566;28;20222;-73
2022/11/01 04:41:05;;;;;;;31.63;16.88;;;;;;;;;;10395061;28;20216;-74
2022/11/01 04:46:06;;;;;;;32.83;16.70;;;;;;;;;;10376677;28;20484;-74
2022/11/01 04:51:08;;;;;;;32.85;16.50;;;;;;;;;;10375702;28;20238;-73
2022/11/01 04:56:11;;;;;;;25.15;15.88;;;;;;;;;;10392084;28;20219;-74
2022/11/01 05:01:12;;;;;;;21.42;15.30;;;;;;;;;;10394969;28;20227;-73
2022/11/01 05:06:14;;;;;;;35.05;15.85;;;;;;;;;;10379871;28;20269;-74
2022/11/01 05:11:15;;;;;;;37.60;16.88;;;;;;;;;;10396685;28;20826;-73
2022/11/01 05:16:16;;;;;;;26.77;15.48;;;;;;;;;;10379145;28;20222;-74
2022/11/01 05:21:17;;;;;;;29.02;16.92;;;;;;;;;;10452188;28;20242;-74
2022/11/01 05:26:19;;;;;;;23.77;16.17;;;;;;;;;;10417931;28;20214;-74
2022/11/01 05:31:20;;;;;;;26.75;17.23;;;;;;;;;;10439388;28;20203;-75
2022/11/01 05:36:21;;;;;;;29.00;17.90;;;;;;;;;;10452052;28;20218;-73
2022/11/01 05:41:22;;;;;;;25.23;17.77;;;;;;;;;;10439607;28;20217;-74
2022/11/01 05:46:23;;;;;;;23.38;16.52;;;;;;;;;;10438920;28;20227;-74
2022/11/01 05:51:24;;;;;;;26.92;17.42;;;;;;;;;;10408333;28;20215;-73
2022/11/01 05:56:26;;;;;;;27.98;16.00;;;;;;;;;;10401535;28;20301;-74
2022/11/01 06:01:27;;;;;;;25.65;16.05;;;;;;;;;;10438605;28;20733;-73
2022/11/01 06:06:29;;;;;;;31.73;18.45;;;;;;;;;;10441651;28;20618;-74
2022/11/01 06:11:30;;;;;;;27.02;18.63;;;;;;;;;;10429442;28;20281;-75
2022/11/01 06:16:32;;;;;;;21.83;15.85;;;;;;;;;;10415469;28;20690;-75
2022/11/01 06:21:34;;;;;;;28.88;18.20;;;;;;;;;;10434853;28;20686;-74
2022/11/01 06:26:36;;;;;;;24.35;16.40;;;;;;;;;;10431685;28;20211;-74
2022/11/01 06:31:37;;;;;;;21.63;16.52;;;;;;;;;;10437929;28;20582;-74
2022/11/01 06:36:38;;;;;;;24.02;16.42;;;;;;;;;;10435170;28;20226;-72
2022/11/01 06:41:39;;;;;;;27.02;16.60;;;;;;;;;;10416517;28;20675;-73
2022/11/01 06:46:40;;;;;;;24.38;15.70;;;;;;;;;;10449426;28;20211;-73
2022/11/01 06:51:41;;;;;;;21.17;15.40;;;;;;;;;;10445261;28;20706;-73
2022/11/01 06:56:42;;;;;;;23.88;15.27;;;;;;;;;;10415252;28;20896;-72
2022/11/01 07:01:44;;;;;;;26.48;15.65;;;;;;;;;;10432547;28;20698;-72
2022/11/01 07:06:45;;;;;;;25.20;15.45;;;;;;;;;;10396424;28;20210;-72
2022/11/01 07:11:46;;;;;;;22.58;15.18;;;;;;;;;;10436578;28;20217;-72
2022/11/01 07:16:47;;;;;;;22.95;14.93;;;;;;;;;;10412805;28;20313;-72
2022/11/01 07:21:49;;;;;;;22.65;15.25;;;;;;;;;;10443082;28;20210;-72
2022/11/01 07:26:50;;;;;;;24.63;15.25;;;;;;;;;;10446313;28;20225;-72
2022/11/01 07:31:51;;;;;;;21.20;14.30;;;;;;;;;;10441870;28;20258;-72
2022/11/01 07:36:52;;;;;;;20.98;13.63;;;;;;;;;;10442021;28;20221;-72
2022/11/01 07:41:54;;;;;;;19.83;13.75;;;;;;;;;;10455147;28;20334;-72
2022/11/01 07:46:55;;;;;;;25.33;15.55;;;;;;;;;;10451789;28;20268;-72
2022/11/01 07:51:56;;;;;;;22.95;14.57;;;;;;;;;;10424160;28;20311;-72
2022/11/01 07:56:57;;;;;;;25.88;14.90;;;;;;;;;;10440667;28;20649;-72
2022/11/01 08:01:58;;;;;;;24.17;12.88;;;;;;;;;;10439920;28;20616;-71
2022/11/01 08:06:59;;;;;;;21.85;13.80;;;;;;;;;;10422398;28;20650;-72
2022/11/01 08:12:01;;;;;;;20.35;13.40;;;;;;;;;;10442519;28;20590;-71
2022/11/01 08:17:02;;;;;;;28.63;14.20;;;;;;;;;;10437197;28;20638;-72
2022/11/01 08:22:03;;;;;;;21.80;12.70;;;;;;;;;;10434240;28;20553;-72
2022/11/01 08:27:04;;;;;;;19.27;11.73;;;;;;;;;;10440017;28;20222;-72
2022/11/01 08:32:05;;;;;;;19.95;11.82;;;;;;;;;;10440297;28;20218;-72
2022/11/01 08:37:06;;;;;;;16.30;10.63;;;;;;;;;;10438623;28;20241;-72
2022/11/01 08:42:08;;;;;;;19.27;11.18;;;;;;;;;;10410205;28;20213;-72
2022/11/01 08:47:10;;;;;;;13.00;9.98;;;;;;;;;;10420346;28;20604;-72
2022/11/01 08:52:11;;;;;;;21.92;8.82;;;;;;;;;;10420470;28;20211;-72
2022/11/01 08:57:14;;;;;;;13.50;8.48;;;;;;;;;;10452791;28;20564;-72
2022/11/01 09:02:15;;;;;;;10.82;7.38;;;;;;;;;;10412383;28;20778;-72
2022/11/01 09:07:17;;;;;;;7.13;6.03;;;;;;;;;;10416206;28;20218;-72
2022/11/01 09:12:18;;;;;;;10.25;6.63;;;;;;;;;;10452785;28;20899;-72
2022/11/01 09:17:20;;;;;;;6.45;5.05;;;;;;;;;;10436832;28;20224;-71
2022/11/01 09:22:21;;;;;;;5.93;5.43;;;;;;;;;;10436438;28;20765;-72
2022/11/01 09:27:22;;;;;;;9.57;4.82;;;;;;;;;;10419587;28;20222;-72
2022/11/01 09:32:23;;;;;;;8.65;5.07;;;;;;;;;;10433651;28;20299;-73
2022/11/01 09:37:24;;;;;;;5.75;5.05;;;;;;;;;;10447755;28;20760;-73
2022/11/01 09:42:31;;;;;;;7.88;5.18;;;;;;;;;;10394885;28;20245;-72
2022/11/01 09:47:32;;;;;;;8.13;5.05;;;;;;;;;;10442105;28;20595;-71
2022/11/01 09:52:34;;;;;;;7.22;4.95;;;;;;;;;;10431808;28;20697;-72
2022/11/01 09:57:36;;;;;;;8.48;4.65;;;;;;;;;;10443603;28;20306;-72
2022/11/01 10:02:56;;;;;;;5.65;4.10;;;;;;;;;;10393842;28;20731;-71
2022/11/01 10:08:21;;;;;;;5.18;4.40;;;;;;;;;;10430500;28;20784;-72
2022/11/01 10:13:31;;;;;;;4.50;3.38;;;;;;;;;;10416218;28;20246;-71
2022/11/01 10:18:36;;;;;;;8.55;3.92;;;;;;;;;;10414778;28;20221;-72
2022/11/01 10:23:42;;;;;;;5.35;4.15;;;;;;;;;;10435615;28;20242;-69
2022/11/01 10:29:02;;;;;;;4.68;3.97;;;;;;;;;;10432534;28;20219;-69
2022/11/01 10:34:08;;;;;;;5.35;4.88;;;;;;;;;;10435674;28;20238;-70
2022/11/01 10:39:20;;;;;;;4.40;4.03;;;;;;;;;;10437914;28;20210;-71
2022/11/01 10:44:28;;;;;;;4.18;3.78;;;;;;;;;;10413756;28;20217;-72
2022/11/01 10:49:31;;;;;;;7.63;3.45;;;;;;;;;;10436439;28;20717;-72
2022/11/01 10:54:34;;;;;;;3.30;3.10;;;;;;;;;;10444046;28;20967;-71
2022/11/01 10:59:39;;;;;;;6.68;2.90;;;;;;;;;;10432542;28;20288;-70
2022/11/01 11:04:41;;;;;;;4.20;3.30;;;;;;;;;;10446949;28;20357;-71
2022/11/01 11:09:42;;;;;;;3.03;2.80;;;;;;;;;;10448312;28;20287;-71
2022/11/01 11:14:45;;;;;;;3.17;2.80;;;;;;;;;;10444056;28;20356;-72
2022/11/01 11:19:47;;;;;;;2.83;2.20;;;;;;;;;;10440859;28;20800;-70
2022/11/01 11:24:48;;;;;;;4.43;2.00;;;;;;;;;;10442135;28;20207;-72
2022/11/01 11:29:51;;;;;;;7.03;2.50;;;;;;;;;;10443248;28;20222;-71
2022/11/01 11:34:55;;;;;;;5.25;2.20;;;;;;;;;;10441698;28;20302;-70
2022/11/01 11:40:05;;;;;;;3.80;2.25;;;;;;;;;;10419104;28;20233;-70
2022/11/01 11:45:20;;;;;;;4.78;2.20;;;;;;;;;;10441493;28;20210;-72
2022/11/01 11:50:22;;;;;;;2.13;1.30;;;;;;;;;;10417351;28;20217;-74
2022/11/01 11:55:38;;;;;;;2.25;1.70;;;;;;;;;;10437067;28;20222;-74
2022/11/01 12:00:47;;;;;;;1.42;1.33;;;;;;;;;;10414632;28;20862;-74
2022/11/01 12:06:07;;;;;;;1.10;0.90;;;;;;;;;;10422307;28;20225;-73
2022/11/01 12:11:08;;;;;;;4.15;1.70;;;;;;;;;;10407952;28;20796;-73
2022/11/01 12:16:15;;;;;;;1.55;0.90;;;;;;;;;;10405961;28;20229;-73
2022/11/01 12:21:18;;;;;;;5.88;1.00;;;;;;;;;;10449391;28;20202;-74
2022/11/01 12:26:21;;;;;;;1.33;1.33;;;;;;;;;;10456258;28;20698;-73
2022/11/01 12:31:26;;;;;;;2.05;1.00;;;;;;;;;;10450529;28;20207;-73
2022/11/01 12:36:53;;;;;;;3.22;1.33;;;;;;;;;;10452525;28;20214;-74
2022/11/01 12:42:02;;;;;;;1.65;0.93;;;;;;;;;;10423627;28;20265;-74
2022/11/01 12:47:10;;;;;;;1.38;1.27;;;;;;;;;;10430844;28;20276;-73
2022/11/01 12:52:23;;;;;;;1.50;1.50;;;;;;;;;;10432299;28;20241;-72
2022/11/01 12:57:24;;;;;;;1.10;0.93;;;;;;;;;;10410201;28;20702;-72
2022/11/01 13:02:26;;;;;;;1.77;1.05;;;;;;;;;;10414120;28;20974;-73
2022/11/01 13:07:36;;;;;;;0.98;0.98;;;;;;;;;;10439171;28;20219;-72
2022/11/01 13:12:37;;;;;;;5.10;1.00;;;;;;;;;;10447636;28;20297;-73
2022/11/01 13:17:39;;;;;;;1.30;0.60;;;;;;;;;;10408839;28;20227;-72
2022/11/01 13:22:45;;;;;;;1.33;0.95;;;;;;;;;;10433660;28;20218;-72
2022/11/01 13:27:52;;;;;;;1.90;0.52;;;;;;;;;;10421852;28;20207;-72
2022/11/01 13:33:00;;;;;;;1.10;0.70;;;;;;;;;;10424593;28;20214;-72
2022/11/01 13:38:01;;;;;;;1.67;0.60;;;;;;;;;;10410285;28;20218;-73
2022/11/01 13:43:12;;;;;;;0.80;0.80;;;;;;;;;;10432424;28;20241;-72
2022/11/01 13:48:29;;;;;;;0.73;0.60;;;;;;;;;;10437015;28;20235;-71
2022/11/01 13:53:34;;;;;;;2.58;0.90;;;;;;;;;;10427875;28;20276;-71
2022/11/01 13:58:36;;;;;;;2.53;0.52;;;;;;;;;;10429929;28;20222;-74
2022/11/01 14:03:37;;;;;;;2.42;0.80;;;;;;;;;;10415434;28;20242;-74
2022/11/01 14:08:39;;;;;;;1.20;0.93;;;;;;;;;;10447505;28;20345;-72
2022/11/01 14:13:45;;;;;;;0.70;0.70;;;;;;;;;;10443405;28;20757;-72
2022/11/01 14:19:02;;;;;;;1.15;1.15;;;;;;;;;;10445196;28;20219;-72
2022/11/01 14:24:07;;;;;;;0.70;0.70;;;;;;;;;;10429372;28;20268;-72
2022/11/01 14:29:10;;;;;;;0.77;0.70;;;;;;;;;;10427638;28;20226;-71
2022/11/01 14:34:23;;;;;;;1.00;1.00;;;;;;;;;;10430588;28;20221;-69
2022/11/01 14:39:44;;;;;;;0.98;0.68;;;;;;;;;;10411846;28;20221;-71
2022/11/01 14:44:46;;;;;;;0.63;0.63;;;;;;;;;;10421389;28;20215;-71
2022/11/01 14:49:48;;;;;;;0.73;0.73;;;;;;;;;;10433111;28;20219;-72
2022/11/01 14:54:55;;;;;;;0.88;0.73;;;;;;;;;;10448832;28;20246;-71
2022/11/01 14:59:57;;;;;;;1.48;1.00;;;;;;;;;;10424450;28;20214;-71
2022/11/01 15:04:59;;;;;;;0.80;0.80;;;;;;;;;;10433515;28;20203;-71
2022/11/01 15:10:00;;;;;;;3.13;1.00;;;;;;;;;;10454514;28;20218;-72
2022/11/01 15:15:02;;;;;;;1.25;1.10;;;;;;;;;;10431787;28;20214;-71
2022/11/01 15:20:12;;;;;;;1.38;1.30;;;;;;;;;;10374837;28;20211;-71
2022/11/01 15:25:20;;;;;;;5.38;1.65;;;;;;;;;;10398033;28;20221;-71
2022/11/01 15:30:26;;;;;;;2.58;1.52;;;;;;;;;;10389061;28;20216;-71
2022/11/01 15:35:29;;;;;;;1.55;1.45;;;;;;;;;;10394364;28;20234;-72
2022/11/01 15:40:33;;;;;;;3.70;1.30;;;;;;;;;;10406287;28;20254;-70
2022/11/01 15:45:35;;;;;;;2.40;1.33;;;;;;;;;;10410047;28;20215;-71
2022/11/01 15:50:37;;;;;;;2.85;1.23;;;;;;;;;;10397150;28;20242;-71
2022/11/01 15:55:41;;;;;;;4.38;1.60;;;;;;;;;;10400264;28;20761;-70
2022/11/01 16:00:47;;;;;;;4.53;1.33;;;;;;;;;;10401792;28;20223;-71
2022/11/01 16:05:48;;;;;;;1.25;1.23;;;;;;;;;;10382917;28;20241;-70
2022/11/01 16:10:49;;;;;;;1.70;1.67;;;;;;;;;;10414408;28;20668;-71
2022/11/01 16:16:09;;;;;;;2.50;2.30;;;;;;;;;;10423363;28;20222;-72
2022/11/01 16:21:19;;;;;;;4.40;4.07;;;;;;;;;;10432753;28;20210;-71
2022/11/01 16:26:21;;;;;;;5.57;5.03;;;;;;;;;;10421220;28;20215;-71
2022/11/01 16:31:27;;;;;;;5.20;4.80;;;;;;;;;;10432501;28;20211;-72
2022/11/01 16:36:31;;;;;;;4.43;3.97;;;;;;;;;;10412908;28;20777;-73
2022/11/01 16:41:34;;;;;;;3.70;3.40;;;;;;;;;;10442875;28;20211;-73
2022/11/01 16:46:35;;;;;;;4.35;3.95;;;;;;;;;;10443689;28;20211;-72
2022/11/01 16:51:37;;;;;;;5.13;4.45;;;;;;;;;;10433022;28;20733;-71
2022/11/01 16:56:43;;;;;;;3.20;3.00;;;;;;;;;;10428076;28;21110;-73
2022/11/01 17:01:45;;;;;;;4.72;4.32;;;;;;;;;;10436250;28;20202;-72
2022/11/01 17:06:46;;;;;;;2.58;2.47;;;;;;;;;;10435690;28;20214;-72
2022/11/01 17:11:49;;;;;;;2.83;2.63;;;;;;;;;;10445784;28;20672;-73
2022/11/01 17:16:52;;;;;;;2.95;2.83;;;;;;;;;;10395274;28;20227;-72
2022/11/01 17:21:53;;;;;;;2.75;2.58;;;;;;;;;;10394999;28;20211;-72
2022/11/01 17:26:57;;;;;;;3.33;3.00;;;;;;;;;;10392359;28;20215;-73
2022/11/01 17:31:59;;;;;;;2.67;2.58;;;;;;;;;;10376147;28;20720;-72
2022/11/01 17:37:01;;;;;;;2.65;2.55;;;;;;;;;;10389945;28;20326;-73
2022/11/01 17:42:02;;;;;;;3.13;2.97;;;;;;;;;;10404666;28;20233;-73
2022/11/01 17:47:03;;;;;;;2.42;2.33;;;;;;;;;;10404841;28;20215;-69
2022/11/01 17:52:04;;;;;;;4.07;2.63;;;;;;;;;;10373673;28;20450;-70
2022/11/01 17:57:06;;;;;;;2.72;2.63;;;;;;;;;;10371174;28;20732;-70
2022/11/01 18:02:08;;;;;;;2.47;2.35;;;;;;;;;;10375175;28;20265;-70
2022/11/01 18:07:11;;;;;;;2.90;2.53;;;;;;;;;;10390999;28;20257;-69
2022/11/01 18:12:29;;;;;;;2.60;2.47;;;;;;;;;;10392309;28;20235;-69
2022/11/01 18:17:47;;;;;;;2.60;2.50;;;;;;;;;;10427912;28;20215;-70
2022/11/01 18:22:54;;;;;;;3.45;3.15;;;;;;;;;;10430223;28;20356;-71
2022/11/01 18:27:58;;;;;;;3.90;3.60;;;;;;;;;;10432528;28;20705;-70
2022/11/01 18:33:26;;;;;;;4.00;3.50;;;;;;;;;;10431491;28;20220;-75
2022/11/01 18:38:33;;;;;;;5.22;3.22;;;;;;;;;;10417870;28;20309;-71
2022/11/01 18:43:38;;;;;;;3.20;3.00;;;;;;;;;;10430445;28;20207;-71
2022/11/01 18:48:39;;;;;;;2.58;2.38;;;;;;;;;;10432778;28;20219;-70
2022/11/01 18:53:40;;;;;;;2.08;2.00;;;;;;;;;;10434558;28;20344;-70
2022/11/01 18:58:41;;;;;;;2.72;2.22;;;;;;;;;;10432302;28;20322;-71
2022/11/01 19:03:42;;;;;;;2.95;2.78;;;;;;;;;;10413840;28;20305;-70
2022/11/01 19:08:48;;;;;;;3.30;2.28;;;;;;;;;;10390544;28;20729;-72
2022/11/01 19:13:50;;;;;;;2.20;2.03;;;;;;;;;;10396739;28;20220;-71
2022/11/01 19:18:51;;;;;;;2.20;2.10;;;;;;;;;;10422445;28;20628;-69
2022/11/01 19:23:57;;;;;;;4.75;4.28;;;;;;;;;;10437433;28;20225;-73
2022/11/01 19:29:05;;;;;;;26.27;11.98;;;;;;;;;;10448315;28;20776;-73
2022/11/01 19:34:12;;;;;;;42.40;21.50;;;;;;;;;;10423990;28;20214;-73
2022/11/01 19:39:16;;;;;;;57.13;27.35;;;;;;;;;;10447422;28;20222;-73
2022/11/01 19:44:19;;;;;;;42.08;20.92;;;;;;;;;;10447550;28;20309;-73
2022/11/01 19:49:22;;;;;;;35.50;16.30;;;;;;;;;;10424640;28;20214;-73
2022/11/01 19:54:23;;;;;;;35.35;16.67;;;;;;;;;;10423974;28;20690;-73
2022/11/01 19:59:24;;;;;;;23.42;13.27;;;;;;;;;;10446402;28;20246;-73
2022/11/01 20:04:28;;;;;;;25.60;11.95;;;;;;;;;;10427470;28;20291;-73
2022/11/01 20:09:37;;;;;;;15.18;9.65;;;;;;;;;;10419956;28;20214;-73
2022/11/01 20:14:39;;;;;;;11.07;7.53;;;;;;;;;;10459804;28;20272;-73
2022/11/01 20:19:40;;;;;;;7.63;5.45;;;;;;;;;;10426946;28;20233;-73
2022/11/01 20:24:41;;;;;;;9.38;6.25;;;;;;;;;;10441540;28;20298;-73
2022/11/01 20:29:42;;;;;;;8.90;6.18;;;;;;;;;;10457350;28;21001;-73
2022/11/01 20:34:43;;;;;;;10.65;5.75;;;;;;;;;;10425825;28;20317;-72
2022/11/01 20:39:44;;;;;;;6.47;5.00;;;;;;;;;;10426707;28;20219;-73
2022/11/01 20:44:45;;;;;;;5.03;4.57;;;;;;;;;;10443437;28;20207;-72
2022/11/01 20:49:46;;;;;;;7.80;4.93;;;;;;;;;;10426896;28;20203;-73
2022/11/01 20:54:48;;;;;;;8.15;4.95;;;;;;;;;;10443961;28;20348;-72
2022/11/01 20:59:50;;;;;;;5.53;3.72;;;;;;;;;;10443564;28;20214;-72
2022/11/01 21:04:53;;;;;;;4.28;3.88;;;;;;;;;;10440324;28;20950;-72
2022/11/01 21:09:54;;;;;;;2.83;1.85;;;;;;;;;;10441139;28;20223;-72
2022/11/01 21:14:56;;;;;;;1.60;1.50;;;;;;;;;;10459352;28;20276;-71
2022/11/01 21:19:57;;;;;;;1.50;1.45;;;;;;;;;;10443663;28;20222;-73
2022/11/01 21:24:59;;;;;;;1.50;1.40;;;;;;;;;;10423715;28;20210;-73
2022/11/01 21:30:02;;;;;;;2.90;1.15;;;;;;;;;;10444487;28;20227;-71
2022/11/01 21:35:22;;;;;;;1.38;1.30;;;;;;;;;;10442694;28;20222;-71
2022/11/01 21:40:28;;;;;;;1.73;1.63;;;;;;;;;;10419017;28;20214;-71
2022/11/01 21:45:30;;;;;;;2.30;2.20;;;;;;;;;;10443638;28;20833;-73
2022/11/01 21:50:32;;;;;;;2.20;2.05;;;;;;;;;;10427140;28;20222;-73
2022/11/01 21:55:33;;;;;;;2.22;2.13;;;;;;;;;;10443040;28;20215;-70
2022/11/01 22:00:34;;;;;;;3.10;2.90;;;;;;;;;;10440126;28;20214;-71
2022/11/01 22:05:35;;;;;;;2.45;2.35;;;;;;;;;;10440833;28;20627;-71
2022/11/01 22:10:36;;;;;;;0.90;0.90;;;;;;;;;;10453293;28;20210;-71
2022/11/01 22:15:38;;;;;;;1.45;0.80;;;;;;;;;;10439364;28;20229;-71
2022/11/01 22:20:40;;;;;;;0.70;0.70;;;;;;;;;;10440921;28;20740;-71
2022/11/01 22:25:41;;;;;;;3.30;1.15;;;;;;;;;;10425816;28;20273;-71
2022/11/01 22:30:42;;;;;;;1.23;1.20;;;;;;;;;;10401631;28;20636;-71
2022/11/01 22:35:43;;;;;;;1.52;0.93;;;;;;;;;;10403471;28;20283;-71
2022/11/01 22:40:47;;;;;;;0.90;0.90;;;;;;;;;;10417734;28;20994;-71
2022/11/01 22:45:52;;;;;;;1.30;1.30;;;;;;;;;;10439957;28;20211;-71
2022/11/01 22:50:53;;;;;;;1.67;1.65;;;;;;;;;;10445815;28;20226;-71
2022/11/01 22:55:55;;;;;;;1.85;0.82;;;;;;;;;;10448882;28;20210;-71
2022/11/01 23:00:57;;;;;;;1.08;1.08;;;;;;;;;;10447997;28;20574;-72
2022/11/01 23:05:59;;;;;;;1.30;1.27;;;;;;;;;;10430438;28;20219;-71
2022/11/01 23:11:01;;;;;;;1.52;1.15;;;;;;;;;;10443920;28;20222;-72
2022/11/01 23:16:11;;;;;;;1.00;1.00;;;;;;;;;;10444757;28;21344;-71
2022/11/01 23:21:12;;;;;;;2.70;0.90;;;;;;;;;;10437307;28;20225;-72
2022/11/01 23:26:14;;;;;;;0.90;0.90;;;;;;;;;;10459523;28;20302;-71
2022/11/01 23:31:16;;;;;;;1.35;1.25;;;;;;;;;;10444033;28;20547;-72
2022/11/01 23:36:17;;;;;;;1.98;1.00;;;;;;;;;;10428182;28;20207;-72
2022/11/01 23:41:20;;;;;;;0.90;0.90;;;;;;;;;;10460498;28;20222;-72
2022/11/01 23:46:22;;;;;;;0.70;0.70;;;;;;;;;;10446705;28;20234;-72
2022/11/01 23:51:23;;;;;;;0.80;0.80;;;;;;;;;;10446412;28;20539;-72
2022/11/01 23:56:24;;;;;;;0.82;0.82;;;;;;;;;;10430331;28;20217;-72
